Time;durP1;ratioP1;P1;durP2;ratioP2;P2;SDS_P1;SDS_P2;PMS_P1;PMS_P2;Temp;Humidity;BMP_temperature;BMP_pressure;BME280_temperature;BME280_humidity;BME280_pressure;Samples;Min_cycle;Max_cycle;Signal;HPM_P1;HPM_P2
2022/09/28 00:02:04;;;;;;;14.43;10.50;;;8.90;99.90;;;;;;5075441;28;20061;-80
2022/09/28 00:04:32;;;;;;;14.48;10.35;;;9.00;99.90;;;;;;5064056;28;20039;-80
2022/09/28 00:06:57;;;;;;;14.88;11.02;;;8.90;99.90;;;;;;5072117;28;20535;-81
2022/09/28 00:09:23;;;;;;;13.98;11.18;;;8.90;99.90;;;;;;5043943;28;20072;-80
2022/09/28 00:11:49;;;;;;;15.63;11.85;;;10.00;99.90;;;;;;5057434;28;20040;-81
2022/09/28 00:14:15;;;;;;;14.85;11.75;;;9.30;99.90;;;;;;5073657;28;20040;-80
2022/09/28 00:16:42;;;;;;;14.23;11.00;;;8.90;99.90;;;;;;5057448;28;20107;-80
2022/09/28 00:19:09;;;;;;;13.35;10.60;;;8.50;99.90;;;;;;5043169;28;20123;-80
2022/09/28 00:21:38;;;;;;;15.18;11.63;;;8.90;99.90;;;;;;5075637;28;20031;-79
2022/09/28 00:24:11;;;;;;;13.10;10.95;;;8.90;99.90;;;;;;5056034;28;20032;-79
2022/09/28 00:26:39;;;;;;;14.18;12.00;;;8.90;99.90;;;;;;5058857;28;20040;-80
2022/09/28 00:29:07;;;;;;;17.98;12.45;;;8.90;99.90;;;;;;5072996;28;20559;-80
2022/09/28 00:31:33;;;;;;;16.98;12.43;;;8.90;99.90;;;;;;5058328;28;20054;-81
2022/09/28 00:34:00;;;;;;;16.08;12.68;;;8.90;99.90;;;;;;5059898;28;21480;-79
2022/09/28 00:36:28;;;;;;;16.73;12.07;;;8.90;99.90;;;;;;5060707;28;20058;-79
2022/09/28 00:38:55;;;;;;;16.17;12.75;;;8.90;99.90;;;;;;5057775;28;20038;-81
2022/09/28 00:41:22;;;;;;;15.95;12.15;;;8.90;99.90;;;;;;5053367;28;20067;-80
2022/09/28 00:43:48;;;;;;;20.63;12.88;;;8.80;99.90;;;;;;5065456;28;20122;-79
2022/09/28 00:46:31;;;;;;;20.33;13.60;;;8.80;99.90;;;;;;5042063;28;20123;-79
2022/09/28 00:49:02;;;;;;;19.08;14.38;;;8.80;99.90;;;;;;5075173;28;20062;-79
2022/09/28 00:51:30;;;;;;;18.98;13.27;;;8.80;99.90;;;;;;5075040;28;20036;-81
2022/09/28 00:53:58;;;;;;;18.38;14.00;;;8.80;99.90;;;;;;5075132;28;20039;-81
2022/09/28 00:56:28;;;;;;;21.08;14.70;;;8.80;99.90;;;;;;5065036;28;20067;-80
2022/09/28 00:58:53;;;;;;;16.40;13.63;;;8.80;99.90;;;;;;5074995;28;20067;-80
2022/09/28 01:01:20;;;;;;;19.33;14.55;;;8.70;99.90;;;;;;5069452;28;20488;-79
2022/09/28 01:03:47;;;;;;;20.92;15.48;;;8.70;99.90;;;;;;5055124;28;20071;-80
2022/09/28 01:06:20;;;;;;;21.33;14.35;;;8.70;99.90;;;;;;5051610;28;20055;-80
2022/09/28 01:08:50;;;;;;;18.90;15.07;;;8.70;99.90;;;;;;5072366;28;20051;-80
2022/09/28 01:11:19;;;;;;;19.55;14.60;;;8.70;99.90;;;;;;5057369;28;20101;-81
2022/09/28 01:13:47;;;;;;;20.33;15.73;;;9.30;99.90;;;;;;5045576;28;20390;-80
2022/09/28 01:16:37;;;;;;;20.95;15.77;;;8.80;99.90;;;;;;5058406;28;20116;-80
2022/09/28 01:19:09;;;;;;;19.58;16.33;;;8.70;99.90;;;;;;5071654;28;20032;-80
2022/09/28 01:22:05;;;;;;;18.02;15.07;;;8.60;99.90;;;;;;5074926;28;20036;-80
2022/09/28 01:24:44;;;;;;;21.70;15.43;;;8.70;99.90;;;;;;5070730;28;20064;-80
2022/09/28 01:27:21;;;;;;;20.92;15.70;;;8.70;99.90;;;;;;5065006;28;20043;-80
2022/09/28 01:29:55;;;;;;;22.33;16.50;;;8.70;99.90;;;;;;5093945;28;20078;-81
2022/09/28 01:32:37;;;;;;;22.33;16.48;;;8.60;99.90;;;;;;5071505;28;20093;-79
2022/09/28 01:35:22;;;;;;;25.15;16.92;;;8.60;99.90;;;;;;5059478;28;20051;-80
2022/09/28 01:38:08;;;;;;;20.73;16.23;;;8.60;99.90;;;;;;5074028;28;20241;-80
2022/09/28 01:40:35;;;;;;;21.67;16.42;;;8.60;99.90;;;;;;5051754;28;20040;-80
2022/09/28 01:43:09;;;;;;;20.52;15.88;;;8.60;99.90;;;;;;5057165;28;20032;-79
2022/09/28 01:45:44;;;;;;;23.02;16.48;;;8.80;99.90;;;;;;5060684;28;20395;-79
2022/09/28 01:48:14;;;;;;;24.63;16.90;;;8.70;99.90;;;;;;5056087;28;20125;-80
2022/09/28 01:50:41;;;;;;;20.27;16.17;;;8.60;99.90;;;;;;5057740;28;20169;-80
2022/09/28 01:53:35;;;;;;;24.63;17.25;;;8.60;99.90;;;;;;5058526;28;20102;-79
2022/09/28 01:56:10;;;;;;;21.15;16.08;;;8.60;99.90;;;;;;5070082;28;20445;-80
2022/09/28 01:58:41;;;;;;;26.05;16.83;;;8.60;99.90;;;;;;5058820;28;20043;-80
2022/09/28 02:01:15;;;;;;;23.48;16.65;;;8.60;99.90;;;;;;5074560;28;20040;-80
2022/09/28 02:03:49;;;;;;;22.92;15.65;;;8.60;99.90;;;;;;5062718;28;20449;-80
2022/09/28 02:06:20;;;;;;;19.73;15.20;;;8.60;99.90;;;;;;5094891;28;20480;-80
2022/09/28 02:08:52;;;;;;;23.80;17.13;;;8.50;99.90;;;;;;5077060;28;20052;-80
2022/09/28 02:11:19;;;;;;;21.00;17.13;;;8.60;99.90;;;;;;5062051;28;20395;-79
2022/09/28 02:13:51;;;;;;;22.75;16.98;;;8.60;99.90;;;;;;5075043;28;20040;-80
2022/09/28 02:16:39;;;;;;;24.08;15.98;;;8.60;99.90;;;;;;5061532;28;20040;-79
2022/09/28 02:19:09;;;;;;;22.63;16.50;;;8.60;99.90;;;;;;5051871;28;20036;-79
2022/09/28 02:21:44;;;;;;;21.08;14.98;;;8.60;99.90;;;;;;5058676;28;20541;-80
2022/09/28 02:24:16;;;;;;;23.13;17.50;;;8.60;99.90;;;;;;5078577;28;20044;-79
2022/09/28 02:26:45;;;;;;;22.65;17.02;;;8.60;99.90;;;;;;5060353;28;20055;-80
2022/09/28 02:29:11;;;;;;;23.67;17.50;;;8.60;99.90;;;;;;5070324;28;20040;-80
2022/09/28 02:31:37;;;;;;;24.67;17.35;;;8.60;99.90;;;;;;5062876;28;20085;-81
2022/09/28 02:34:03;;;;;;;23.63;17.10;;;8.60;99.90;;;;;;5076813;28;20032;-81
2022/09/28 02:36:29;;;;;;;24.38;17.85;;;8.60;99.90;;;;;;5058014;28;20046;-81
2022/09/28 02:38:57;;;;;;;26.52;17.23;;;8.60;99.90;;;;;;5058134;28;20516;-81
2022/09/28 02:41:40;;;;;;;26.55;17.00;;;8.60;99.90;;;;;;5066031;28;20044;-81
2022/09/28 02:44:24;;;;;;;27.38;17.58;;;9.50;99.90;;;;;;5048652;28;20087;-80
2022/09/28 02:47:03;;;;;;;24.25;17.98;;;8.60;99.90;;;;;;5057399;28;20538;-81
2022/09/28 02:49:51;;;;;;;24.80;17.60;;;8.60;99.90;;;;;;5063634;28;20040;-81
2022/09/28 02:53:11;;;;;;;26.02;17.77;;;8.90;99.90;;;;;;5063674;28;20041;-81
2022/09/28 02:56:10;;;;;;;27.60;18.27;;;8.60;99.90;;;;;;5022122;28;20045;-82
2022/09/28 02:58:38;;;;;;;27.80;18.92;;;8.60;99.90;;;;;;5005149;28;20085;-80
2022/09/28 03:01:33;;;;;;;28.33;19.15;;;8.70;99.90;;;;;;5038459;28;20044;-80
2022/09/28 03:04:20;;;;;;;29.27;19.95;;;8.60;99.90;;;;;;5065665;28;20059;-79
2022/09/28 03:07:19;;;;;;;31.73;20.17;;;8.60;99.90;;;;;;5060895;28;20048;-79
2022/09/28 03:09:52;;;;;;;26.95;19.17;;;8.60;99.90;;;;;;5055280;28;20033;-80
2022/09/28 03:12:19;;;;;;;28.98;19.73;;;8.60;99.90;;;;;;5058119;28;20094;-80
2022/09/28 03:14:45;;;;;;;29.95;20.85;;;8.60;99.90;;;;;;5050806;28;20041;-80
2022/09/28 03:17:11;;;;;;;30.52;20.40;;;9.70;99.90;;;;;;5033723;28;20051;-80
2022/09/28 03:19:36;;;;;;;32.08;21.35;;;8.60;99.90;;;;;;5029559;28;20032;-79
2022/09/28 03:22:04;;;;;;;32.85;21.65;;;8.60;99.90;;;;;;5027357;28;20484;-79
2022/09/28 03:24:30;;;;;;;32.38;21.48;;;8.60;99.90;;;;;;5024403;28;20064;-80
2022/09/28 03:26:55;;;;;;;31.15;22.20;;;8.60;99.90;;;;;;5057249;28;20094;-80
2022/09/28 03:29:21;;;;;;;35.85;21.35;;;9.60;99.90;;;;;;5058090;28;20120;-80
2022/09/28 03:31:47;;;;;;;32.38;20.77;;;9.00;99.90;;;;;;5024351;28;20106;-79
2022/09/28 03:34:13;;;;;;;32.53;20.88;;;9.30;99.90;;;;;;5057098;28;20040;-80
2022/09/28 03:36:39;;;;;;;31.20;20.48;;;8.60;99.90;;;;;;5038846;28;20045;-80
2022/09/28 03:39:04;;;;;;;38.85;20.52;;;8.60;99.90;;;;;;5029481;28;20124;-79
2022/09/28 03:41:30;;;;;;;31.25;21.25;;;8.60;99.90;;;;;;5051416;28;20069;-80
2022/09/28 03:43:56;;;;;;;33.15;22.10;;;8.60;99.90;;;;;;5027717;28;20048;-80
2022/09/28 03:46:21;;;;;;;29.27;20.55;;;8.60;99.90;;;;;;5036754;28;20512;-80
2022/09/28 03:48:47;;;;;;;34.65;22.05;;;8.60;99.90;;;;;;5027237;28;20041;-80
2022/09/28 03:51:13;;;;;;;33.75;20.35;;;8.60;99.90;;;;;;5026463;28;20420;-79
2022/09/28 03:53:39;;;;;;;33.97;20.92;;;8.60;99.90;;;;;;5027529;28;20044;-79
2022/09/28 03:56:07;;;;;;;31.30;20.77;;;8.60;99.90;;;;;;5040437;28;20041;-80
2022/09/28 03:58:33;;;;;;;33.97;22.08;;;8.60;99.90;;;;;;5062412;28;20066;-80
2022/09/28 04:01:05;;;;;;;34.10;20.80;;;8.60;99.90;;;;;;5054096;28;20110;-80
2022/09/28 04:03:31;;;;;;;33.15;21.23;;;8.60;99.90;;;;;;5049185;28;20083;-79
2022/09/28 04:05:56;;;;;;;29.73;20.95;;;8.60;99.90;;;;;;5022125;28;20119;-79
2022/09/28 04:08:22;;;;;;;31.20;20.98;;;8.60;99.90;;;;;;5033222;28;20110;-79
2022/09/28 04:10:48;;;;;;;35.80;21.25;;;8.60;99.90;;;;;;5029599;28;20046;-79
2022/09/28 04:13:14;;;;;;;42.85;21.27;;;8.60;99.90;;;;;;5044700;28;20044;-79
2022/09/28 04:15:40;;;;;;;32.15;21.08;;;8.60;99.90;;;;;;5047966;28;20033;-79
2022/09/28 04:18:11;;;;;;;33.30;20.80;;;8.60;99.90;;;;;;5054094;28;20037;-80
2022/09/28 04:20:38;;;;;;;33.97;21.60;;;8.50;99.90;;;;;;5053447;28;20385;-80
2022/09/28 04:23:04;;;;;;;33.20;21.70;;;8.60;99.90;;;;;;5023426;28;20120;-80
2022/09/28 04:25:30;;;;;;;34.22;21.90;;;8.50;99.90;;;;;;5055377;28;20078;-80
2022/09/28 04:30:39;;;;;;;37.50;22.10;;;8.80;99.90;;;;;;5044105;28;20139;-79
2022/09/28 04:33:05;;;;;;;37.60;22.17;;;8.60;99.90;;;;;;5022208;28;20072;-80
2022/09/28 04:35:31;;;;;;;39.05;23.10;;;8.60;99.90;;;;;;5022744;28;20032;-80
2022/09/28 04:37:56;;;;;;;37.60;22.45;;;8.90;99.90;;;;;;5002887;28;20490;-80
2022/09/28 04:40:22;;;;;;;45.58;23.40;;;8.60;99.90;;;;;;5057106;28;20079;-80
2022/09/28 04:42:55;;;;;;;40.53;22.50;;;8.60;99.90;;;;;;5038328;28;20036;-80
2022/09/28 04:45:21;;;;;;;53.88;24.73;;;8.60;99.90;;;;;;5037309;28;20037;-81
2022/09/28 04:47:47;;;;;;;50.45;23.52;;;8.50;99.90;;;;;;5055738;28;20551;-80
2022/09/28 04:50:13;;;;;;;40.30;24.15;;;8.60;99.90;;;;;;5046265;28;20123;-80
2022/09/28 04:52:39;;;;;;;64.57;24.48;;;8.60;99.90;;;;;;5062481;28;20063;-80
2022/09/28 04:55:05;;;;;;;43.10;23.55;;;8.50;99.90;;;;;;5022382;28;20044;-80
2022/09/28 04:57:33;;;;;;;35.45;22.95;;;8.60;99.90;;;;;;5025708;28;20470;-80
2022/09/28 04:59:59;;;;;;;42.97;25.38;;;8.60;99.90;;;;;;5079704;28;20040;-80
2022/09/28 05:02:26;;;;;;;40.50;24.25;;;8.60;99.90;;;;;;5042991;28;20040;-80
2022/09/28 05:04:54;;;;;;;36.80;23.27;;;8.60;99.90;;;;;;5072672;28;20044;-81
2022/09/28 05:07:19;;;;;;;37.67;23.90;;;8.60;99.90;;;;;;5055803;28;20076;-81
2022/09/28 05:09:45;;;;;;;36.65;22.77;;;8.60;99.90;;;;;;5039894;28;20076;-80
2022/09/28 05:12:11;;;;;;;34.28;23.40;;;8.70;99.90;;;;;;5037231;28;20051;-79
2022/09/28 05:14:37;;;;;;;34.00;22.25;;;8.60;99.90;;;;;;5020511;28;20572;-80
2022/09/28 05:17:02;;;;;;;30.63;21.45;;;8.60;99.90;;;;;;5040144;28;20040;-80
2022/09/28 05:19:29;;;;;;;28.60;19.58;;;8.60;99.90;;;;;;5044461;28;20512;-80
2022/09/28 05:21:56;;;;;;;26.80;18.92;;;8.60;99.90;;;;;;5041902;28;20506;-80
2022/09/28 05:24:22;;;;;;;25.73;18.58;;;8.50;99.90;;;;;;5033740;28;20033;-80
2022/09/28 05:26:48;;;;;;;27.42;19.40;;;8.60;99.90;;;;;;5030859;28;20039;-80
2022/09/28 05:29:14;;;;;;;31.83;19.25;;;8.50;99.90;;;;;;5019613;28;20048;-80
2022/09/28 05:31:40;;;;;;;25.67;18.05;;;8.50;99.90;;;;;;5020422;28;20045;-80
2022/09/28 05:34:06;;;;;;;26.83;18.77;;;8.50;99.90;;;;;;5022170;28;20047;-84
2022/09/28 05:36:31;;;;;;;23.98;18.17;;;8.50;99.90;;;;;;5023414;28;20499;-84
2022/09/28 05:38:57;;;;;;;26.13;18.00;;;8.50;99.90;;;;;;5041666;28;20036;-85
2022/09/28 05:41:23;;;;;;;23.73;17.38;;;8.50;99.90;;;;;;5059528;28;20400;-85
2022/09/28 05:43:50;;;;;;;26.23;16.98;;;8.50;99.90;;;;;;5046376;28;20127;-83
2022/09/28 05:46:17;;;;;;;24.50;17.30;;;8.60;99.90;;;;;;5045288;28;20518;-84
2022/09/28 05:48:42;;;;;;;24.05;17.05;;;8.60;99.90;;;;;;5083311;28;20043;-84
2022/09/28 05:51:09;;;;;;;25.80;17.92;;;8.70;99.90;;;;;;5044527;28;20086;-85
2022/09/28 05:53:35;;;;;;;23.50;17.17;;;9.00;99.90;;;;;;5042791;28;20040;-84
2022/09/28 05:56:01;;;;;;;21.77;15.68;;;8.60;99.90;;;;;;5034885;28;20498;-84
2022/09/28 05:58:27;;;;;;;25.23;16.67;;;8.60;99.90;;;;;;5072732;28;20036;-84
2022/09/28 06:00:56;;;;;;;26.13;17.20;;;8.60;99.90;;;;;;5072439;28;20043;-85
2022/09/28 06:03:23;;;;;;;23.40;15.90;;;8.60;99.90;;;;;;5079683;28;20032;-84
2022/09/28 06:05:48;;;;;;;21.88;15.93;;;8.60;99.90;;;;;;5075454;28;20094;-85
2022/09/28 06:08:14;;;;;;;20.02;15.55;;;8.60;99.90;;;;;;5040628;28;20039;-83
2022/09/28 06:10:40;;;;;;;23.85;15.57;;;8.70;99.90;;;;;;5067285;28;20024;-82
2022/09/28 06:13:06;;;;;;;22.52;15.98;;;8.70;99.90;;;;;;5047192;28;20043;-82
2022/09/28 06:15:34;;;;;;;21.38;15.07;;;8.70;99.90;;;;;;5073208;28;20033;-83
2022/09/28 06:18:06;;;;;;;21.85;15.93;;;8.70;99.90;;;;;;5054788;28;20485;-83
2022/09/28 06:20:34;;;;;;;22.30;15.77;;;8.70;99.90;;;;;;5067233;28;20032;-82
2022/09/28 06:23:00;;;;;;;20.00;15.02;;;8.70;99.90;;;;;;5058817;28;20063;-83
2022/09/28 06:25:26;;;;;;;24.58;16.15;;;8.70;99.90;;;;;;5062385;28;20108;-82
2022/09/28 06:28:01;;;;;;;25.73;16.20;;;8.80;99.90;;;;;;5063855;28;20143;-83
2022/09/28 06:30:31;;;;;;;25.10;15.77;;;8.80;99.90;;;;;;5072016;28;20043;-82
2022/09/28 06:32:58;;;;;;;22.05;15.27;;;8.80;99.90;;;;;;5071382;28;20048;-84
2022/09/28 06:35:26;;;;;;;25.58;16.30;;;8.80;99.90;;;;;;5072517;28;20036;-84
2022/09/28 06:37:52;;;;;;;20.73;15.23;;;8.80;99.90;;;;;;5070485;28;20044;-83
2022/09/28 06:40:19;;;;;;;19.27;14.63;;;8.80;99.90;;;;;;5076010;28;20028;-84
2022/09/28 06:43:09;;;;;;;23.55;14.82;;;8.80;99.90;;;;;;5042094;28;20039;-84
2022/09/28 06:45:35;;;;;;;24.33;15.32;;;9.00;99.90;;;;;;5057573;28;20076;-84
2022/09/28 06:48:02;;;;;;;23.10;14.80;;;9.00;99.90;;;;;;5059432;28;20078;-82
2022/09/28 06:50:43;;;;;;;21.85;16.08;;;9.00;99.90;;;;;;5175742;27;20399;-84
2022/09/28 06:53:12;;;;;;;19.50;14.32;;;9.10;99.90;;;;;;5139772;27;20038;-85
2022/09/28 06:55:43;;;;;;;20.02;14.40;;;9.10;99.90;;;;;;5153894;27;20091;-84
2022/09/28 06:58:13;;;;;;;20.38;14.60;;;9.40;99.90;;;;;;5189528;27;20094;-84
2022/09/28 07:00:40;;;;;;;18.30;13.73;;;9.20;99.90;;;;;;5175586;27;20066;-84
2022/09/28 07:03:16;;;;;;;18.55;12.40;;;9.20;99.90;;;;;;5155181;27;20039;-84
2022/09/28 07:05:43;;;;;;;;;;;9.20;99.90;;;;;;5156758;27;20043;-84
2022/09/28 07:08:08;;;;;;;;;;;9.20;99.90;;;;;;5173549;27;20255;-84
2022/09/28 07:10:34;;;;;;;19.67;12.10;;;9.20;99.90;;;;;;5156732;27;19945;-83
2022/09/28 07:13:03;;;;;;;15.73;11.77;;;9.20;99.90;;;;;;5152526;27;20474;-85
2022/09/28 07:15:30;;;;;;;16.95;12.32;;;9.30;99.90;;;;;;5152645;27;20058;-84
2022/09/28 07:17:58;;;;;;;15.98;12.10;;;9.30;99.90;;;;;;5144966;27;20038;-84
2022/09/28 07:20:24;;;;;;;17.83;12.23;;;9.30;99.90;;;;;;5180373;27;20095;-85
2022/09/28 07:23:00;;;;;;;15.27;12.52;;;9.30;99.90;;;;;;5135332;27;20078;-84
2022/09/28 07:25:31;;;;;;;16.23;11.65;;;9.30;99.90;;;;;;5151013;27;20058;-85
2022/09/28 07:28:01;;;;;;;14.82;11.93;;;9.30;99.90;;;;;;5140723;27;20066;-84
2022/09/28 07:30:30;;;;;;;15.90;11.70;;;9.30;99.90;;;;;;5137356;27;20042;-85
2022/09/28 07:32:56;;;;;;;14.10;11.45;;;9.30;99.90;;;;;;5167523;27;20118;-86
2022/09/28 07:35:22;;;;;;;16.30;11.65;;;9.30;99.90;;;;;;5135105;27;20451;-84
2022/09/28 07:37:48;;;;;;;14.20;11.05;;;9.30;99.90;;;;;;5140275;27;20030;-84
2022/09/28 07:43:05;;;;;;;15.65;11.13;;;9.30;99.90;;;;;;5177672;27;20031;-83
2022/09/28 07:45:34;;;;;;;14.73;11.07;;;9.30;99.90;;;;;;5144497;27;20047;-84
2022/09/28 07:48:00;;;;;;;14.57;10.68;;;9.20;99.90;;;;;;5156834;27;20102;-85
2022/09/28 07:50:26;;;;;;;14.02;10.00;;;9.30;99.90;;;;;;5151162;27;20061;-85
2022/09/28 07:52:52;;;;;;;12.13;9.82;;;9.30;99.90;;;;;;5156072;27;20667;-84
2022/09/28 07:55:17;;;;;;;13.68;9.90;;;9.30;99.90;;;;;;5121975;27;20077;-83
2022/09/28 07:57:45;;;;;;;12.90;9.55;;;9.30;99.90;;;;;;5137374;27;20042;-84
2022/09/28 08:00:12;;;;;;;15.60;10.45;;;9.40;99.90;;;;;;5151629;27;20071;-84
2022/09/28 08:02:38;;;;;;;13.13;9.57;;;9.50;99.90;;;;;;5158290;27;20038;-84
2022/09/28 08:05:04;;;;;;;13.80;10.05;;;9.50;99.90;;;;;;5121052;27;20039;-84
2022/09/28 08:07:31;;;;;;;13.70;9.45;;;9.60;99.90;;;;;;5128501;27;20046;-84
2022/09/28 08:09:57;;;;;;;9.63;7.97;;;9.70;99.90;;;;;;5141369;27;20058;-86
2022/09/28 08:12:22;;;;;;;9.77;7.40;;;9.70;99.90;;;;;;5139746;27;20390;-83
2022/09/28 08:14:49;;;;;;;10.05;7.88;;;9.80;99.90;;;;;;5107028;27;20117;-84
2022/09/28 08:17:15;;;;;;;10.95;8.68;;;9.80;99.90;;;;;;5141402;27;20038;-84
2022/09/28 08:22:25;;;;;;;11.52;8.18;;;9.70;99.90;;;;;;5114615;27;20042;-84
2022/09/28 08:24:51;;;;;;;11.75;8.93;;;9.70;99.90;;;;;;5127392;27;20471;-85
2022/09/28 08:27:17;;;;;;;11.45;8.52;;;9.70;99.90;;;;;;5121806;27;20026;-84
2022/09/28 08:29:43;;;;;;;11.90;8.93;;;9.70;99.90;;;;;;5121372;27;20074;-84
2022/09/28 08:32:09;;;;;;;9.00;7.75;;;9.70;99.90;;;;;;5157200;27;20081;-84
2022/09/28 08:34:37;;;;;;;9.98;7.70;;;9.70;99.90;;;;;;5128862;27;20039;-84
2022/09/28 08:37:03;;;;;;;10.10;7.10;;;9.70;99.90;;;;;;5154545;27;20126;-84
2022/09/28 08:39:29;;;;;;;9.02;6.57;;;9.80;99.90;;;;;;5119652;27;20030;-84
2022/09/28 08:42:19;;;;;;;7.95;6.07;;;9.80;99.90;;;;;;5104063;27;20069;-83
2022/09/28 08:44:56;;;;;;;7.88;6.00;;;9.80;99.90;;;;;;5134132;27;20047;-83
2022/09/28 08:50:29;;;;;;;7.75;5.97;;;9.80;99.90;;;;;;5155971;27;20562;-82
2022/09/28 08:52:58;;;;;;;;;;;9.80;99.90;;;;;;5152674;27;20066;-83
2022/09/28 08:55:31;;;;;;;8.43;5.75;;;9.80;99.90;;;;;;5157227;27;19922;-84
2022/09/28 08:58:16;;;;;;;8.63;5.50;;;9.80;99.90;;;;;;5152373;27;20035;-85
2022/09/28 09:00:50;;;;;;;8.50;4.72;;;9.90;99.90;;;;;;5136125;27;20037;-85
2022/09/28 09:03:34;;;;;;;7.35;4.90;;;10.00;99.90;;;;;;5140165;27;20042;-84
2022/09/28 09:06:26;;;;;;;7.45;5.20;;;10.00;99.90;;;;;;5139357;27;20449;-85
2022/09/28 09:09:01;;;;;;;6.43;4.75;;;10.00;99.90;;;;;;5133419;27;20050;-85
2022/09/28 09:11:50;;;;;;;5.75;4.60;;;10.10;99.90;;;;;;5140433;27;20042;-84
2022/09/28 09:14:16;;;;;;;6.30;4.55;;;10.20;99.90;;;;;;5134490;27;20031;-84
2022/09/28 09:17:04;;;;;;;7.47;4.00;;;10.20;99.90;;;;;;5139978;27;20046;-84
2022/09/28 09:19:50;;;;;;;6.32;3.80;;;10.30;99.90;;;;;;5140440;27;20046;-85
2022/09/28 09:22:27;;;;;;;7.38;4.40;;;10.30;99.90;;;;;;5133251;27;20043;-84
2022/09/28 09:25:23;;;;;;;7.15;4.38;;;10.40;99.90;;;;;;5136494;27;20075;-84
2022/09/28 09:28:01;;;;;;;4.60;3.80;;;10.40;99.90;;;;;;5134367;27;20139;-85
2022/09/28 09:30:36;;;;;;;5.07;4.15;;;10.50;99.90;;;;;;5136693;27;20051;-84
2022/09/28 09:33:22;;;;;;;4.63;3.85;;;10.60;99.90;;;;;;5137455;27;20057;-84
2022/09/28 09:35:57;;;;;;;4.90;3.72;;;10.60;99.90;;;;;;5158037;27;20055;-84
2022/09/28 09:38:31;;;;;;;4.65;3.92;;;10.70;99.90;;;;;;5148573;27;20039;-84
2022/09/28 09:41:36;;;;;;;5.63;3.75;;;10.80;99.90;;;;;;5139421;27;20115;-85
2022/09/28 09:44:16;;;;;;;6.45;4.13;;;11.00;99.90;;;;;;5158189;27;20042;-83
2022/09/28 09:47:08;;;;;;;7.28;3.58;;;11.10;99.90;;;;;;5148331;27;20086;-84
2022/09/28 09:49:44;;;;;;;3.83;2.75;;;11.30;99.90;;;;;;5133131;27;20051;-84
2022/09/28 09:52:45;;;;;;;4.55;3.05;;;11.30;99.90;;;;;;5140851;27;20063;-84
2022/09/28 09:55:18;;;;;;;5.28;2.83;;;11.40;99.90;;;;;;5131424;27;20039;-84
2022/09/28 09:58:03;;;;;;;3.63;2.63;;;11.50;99.90;;;;;;5140557;27;20035;-86
2022/09/28 10:00:30;;;;;;;4.13;2.73;;;11.60;99.90;;;;;;5133843;27;20048;-85
2022/09/28 10:02:58;;;;;;;4.82;2.83;;;11.90;99.90;;;;;;5131481;27;20039;-85
2022/09/28 10:05:28;;;;;;;3.70;2.40;;;12.10;99.90;;;;;;5113382;27;20047;-84
2022/09/28 10:07:59;;;;;;;3.67;2.05;;;12.10;99.90;;;;;;5135991;27;20043;-84
2022/09/28 10:10:48;;;;;;;3.45;2.50;;;12.10;99.90;;;;;;5156510;27;20142;-83
2022/09/28 10:13:14;;;;;;;2.65;1.70;;;12.10;99.90;;;;;;5144754;27;20383;-83
2022/09/28 10:15:40;;;;;;;4.07;1.90;;;12.00;99.90;;;;;;5134794;27;20045;-84
2022/09/28 10:18:12;;;;;;;3.17;1.40;;;12.10;99.90;;;;;;5139171;27;20035;-84
2022/09/28 10:20:41;;;;;;;2.10;1.27;;;12.10;99.90;;;;;;5131683;27;20035;-85
2022/09/28 10:23:19;;;;;;;4.57;1.48;;;12.20;99.90;;;;;;5130042;27;20035;-84
2022/09/28 10:25:46;;;;;;;1.92;1.00;;;12.30;99.90;;;;;;5136867;27;20099;-84
2022/09/28 10:28:21;;;;;;;3.72;1.20;;;12.50;99.90;;;;;;5141322;27;20049;-85
2022/09/28 10:30:47;;;;;;;2.88;0.77;;;12.50;99.90;;;;;;5138290;27;20043;-85
2022/09/28 10:33:33;;;;;;;1.00;0.70;;;12.50;99.90;;;;;;5121498;27;20048;-85
2022/09/28 10:36:00;;;;;;;2.30;1.08;;;12.60;99.90;;;;;;5123384;27;20375;-84
2022/09/28 10:38:28;;;;;;;2.00;0.85;;;12.60;99.90;;;;;;5155938;27;20043;-84
2022/09/28 10:40:58;;;;;;;3.38;0.98;;;12.70;99.90;;;;;;5136929;27;20038;-85
2022/09/28 10:43:30;;;;;;;2.83;1.10;;;12.70;99.90;;;;;;5137001;27;20031;-85
2022/09/28 10:46:04;;;;;;;2.72;0.90;;;12.70;99.90;;;;;;5138884;27;20031;-86
2022/09/28 10:48:51;;;;;;;5.03;1.23;;;12.80;99.90;;;;;;5136550;27;20042;-86
2022/09/28 10:51:17;;;;;;;1.65;0.80;;;12.80;99.90;;;;;;5141664;27;20051;-85
2022/09/28 10:53:59;;;;;;;1.38;0.73;;;12.90;99.90;;;;;;5118575;27;20475;-86
2022/09/28 10:56:33;;;;;;;1.40;0.75;;;12.90;99.90;;;;;;5138794;27;20034;-85
2022/09/28 10:58:59;;;;;;;2.80;0.80;;;13.00;99.90;;;;;;5150634;27;20050;-86
2022/09/28 11:01:31;;;;;;;4.28;0.77;;;13.10;99.90;;;;;;5112232;27;20046;-85
2022/09/28 11:04:03;;;;;;;1.95;0.80;;;13.20;99.90;;;;;;5137932;27;20058;-84
2022/09/28 11:06:31;;;;;;;2.88;0.68;;;13.30;99.90;;;;;;5132755;27;20034;-84
2022/09/28 11:09:00;;;;;;;2.15;0.70;;;13.30;99.90;;;;;;5138425;27;20382;-83
2022/09/28 11:11:28;;;;;;;1.25;0.60;;;13.30;99.90;;;;;;5138689;27;20041;-83
2022/09/28 11:14:02;;;;;;;3.65;0.90;;;13.30;99.90;;;;;;5155453;27;20047;-83
2022/09/28 11:16:34;;;;;;;4.00;0.85;;;13.20;99.90;;;;;;5156506;27;20095;-84
2022/09/28 11:19:27;;;;;;;2.65;0.85;;;13.30;99.90;;;;;;5153622;27;20095;-86
2022/09/28 11:21:52;;;;;;;2.85;0.90;;;13.30;99.90;;;;;;5132412;27;20054;-85
2022/09/28 11:24:22;;;;;;;1.60;0.80;;;13.30;99.90;;;;;;5110825;27;20039;-86
2022/09/28 11:26:55;;;;;;;1.63;0.73;;;13.40;99.90;;;;;;5157620;27;20043;-89
2022/09/28 11:29:34;;;;;;;2.05;0.70;;;13.40;99.90;;;;;;5141411;27;20491;-89
2022/09/28 11:32:02;;;;;;;2.67;0.80;;;13.40;99.90;;;;;;5134440;28;20069;-88
2022/09/28 11:34:35;;;;;;;1.25;0.65;;;13.60;99.90;;;;;;5137026;27;20042;-89
2022/09/28 11:37:09;;;;;;;2.70;0.70;;;13.60;99.90;;;;;;5142718;27;20035;-89
2022/09/28 11:39:40;;;;;;;2.42;0.75;;;13.70;99.90;;;;;;5155959;27;20038;-89
2022/09/28 11:42:31;;;;;;;3.92;0.80;;;13.60;99.90;;;;;;5145641;27;20398;-88
2022/09/28 11:45:23;;;;;;;2.47;0.70;;;13.60;99.90;;;;;;5139638;27;20071;-88
2022/09/28 11:47:56;;;;;;;2.50;0.60;;;13.50;99.90;;;;;;5140105;27;20451;-88
2022/09/28 11:50:26;;;;;;;2.55;0.77;;;13.40;99.90;;;;;;5145962;27;20058;-88
2022/09/28 11:53:18;;;;;;;2.10;0.55;;;13.40;99.90;;;;;;5146104;27;20034;-88
2022/09/28 11:56:26;;;;;;;1.70;0.52;;;13.30;99.90;;;;;;5128011;27;20070;-88
2022/09/28 11:58:59;;;;;;;3.10;0.75;;;13.20;99.90;;;;;;5121127;27;20047;-88
2022/09/28 12:01:58;;;;;;;1.23;0.45;;;13.00;99.90;;;;;;5145872;27;20047;-87
2022/09/28 12:04:38;;;;;;;0.40;0.40;;;13.00;99.90;;;;;;5120029;27;20242;-88
2022/09/28 12:07:31;;;;;;;1.38;0.50;;;12.90;99.90;;;;;;5147160;27;20545;-87
2022/09/28 12:10:06;;;;;;;1.08;0.45;;;12.80;99.90;;;;;;5150415;27;20034;-88
2022/09/28 12:13:01;;;;;;;2.87;0.67;;;12.80;99.90;;;;;;5151151;27;20107;-89
2022/09/28 12:16:09;;;;;;;1.00;0.60;;;12.70;99.90;;;;;;5172439;27;20271;-89
2022/09/28 12:19:14;;;;;;;1.85;0.50;;;12.60;99.90;;;;;;5152914;27;20031;-89
2022/09/28 12:21:50;;;;;;;1.70;0.50;;;12.50;99.90;;;;;;5144277;27;20034;-89
2022/09/28 12:24:46;;;;;;;1.17;0.20;;;12.50;99.90;;;;;;5144904;27;20359;-89
2022/09/28 12:27:20;;;;;;;0.65;0.40;;;12.40;99.90;;;;;;5162500;27;20027;-88
2022/09/28 12:29:59;;;;;;;0.95;0.30;;;12.40;99.90;;;;;;5145869;27;20164;-88
2022/09/28 12:32:59;;;;;;;0.55;0.30;;;12.30;99.90;;;;;;5140682;27;20061;-90
2022/09/28 12:36:03;;;;;;;0.50;0.40;;;12.30;99.90;;;;;;5127979;27;20071;-89
2022/09/28 12:38:50;;;;;;;0.70;0.43;;;12.30;99.90;;;;;;5133243;27;20047;-89
2022/09/28 12:41:38;;;;;;;0.60;0.28;;;12.40;99.90;;;;;;5142991;27;20039;-88
2022/09/28 12:44:23;;;;;;;1.38;0.28;;;12.40;99.90;;;;;;5140902;27;20035;-90
2022/09/28 12:46:54;;;;;;;0.38;0.20;;;12.40;99.90;;;;;;5135641;27;20035;-89
2022/09/28 12:49:40;;;;;;;0.20;0.20;;;12.60;99.90;;;;;;5137070;27;20467;-89
2022/09/28 12:52:17;;;;;;;2.67;0.22;;;12.70;99.90;;;;;;5157148;27;21411;-90
2022/09/28 12:55:05;;;;;;;1.30;0.40;;;12.80;99.90;;;;;;5128716;27;20474;-89
2022/09/28 12:57:55;;;;;;;0.77;0.28;;;12.80;99.90;;;;;;5136031;27;20046;-89
2022/09/28 13:00:25;;;;;;;0.40;0.20;;;12.90;99.90;;;;;;5139788;27;20122;-89
2022/09/28 13:03:22;;;;;;;1.42;0.60;;;12.90;99.90;;;;;;5128021;27;20043;-90
2022/09/28 13:06:45;;;;;;;0.77;0.40;;;13.00;99.90;;;;;;5141243;27;20046;-89
2022/09/28 13:09:22;;;;;;;0.85;0.65;;;13.00;99.90;;;;;;5082323;28;20044;-89
2022/09/28 13:12:21;;;;;;;3.50;1.00;;;13.00;99.90;;;;;;5079331;28;20519;-89
2022/09/28 13:15:14;;;;;;;0.95;0.50;;;13.00;99.90;;;;;;5092973;27;20490;-89
2022/09/28 13:18:02;;;;;;;1.80;0.45;;;13.10;99.90;;;;;;5159920;27;20398;-90
2022/09/28 13:20:47;;;;;;;0.88;0.52;;;13.20;99.90;;;;;;5134123;27;20039;-90
2022/09/28 13:23:27;;;;;;;1.80;0.77;;;13.30;99.90;;;;;;5140371;27;20110;-90
2022/09/28 13:26:20;;;;;;;1.13;0.90;;;13.40;99.90;;;;;;5142776;27;20066;-89